createdAt,value
2017-11-29T00:00:37.825Z,5.20
2017-11-29T00:01:37.847Z,5.20
2017-11-29T00:02:37.894Z,5.20
2017-11-29T00:03:37.827Z,5.20
2017-11-29T00:04:37.835Z,5.20
2017-11-29T00:05:37.840Z,5.20
2017-11-29T00:06:37.897Z,5.20
2017-11-29T00:07:37.843Z,5.20
2017-11-29T00:08:37.901Z,5.20
2017-11-29T00:09:37.841Z,5.20
2017-11-29T00:10:37.899Z,5.20
2017-11-29T00:11:37.843Z,5.20
2017-11-29T00:12:37.902Z,5.20
2017-11-29T00:13:37.905Z,5.20
2017-11-29T00:14:37.921Z,5.20
2017-11-29T00:15:37.836Z,5.20
2017-11-29T00:16:37.834Z,5.20
2017-11-29T00:17:37.835Z,5.20
2017-11-29T00:18:37.855Z,5.00
2017-11-29T00:19:37.800Z,5.00
2017-11-29T00:20:37.754Z,5.00
2017-11-29T00:21:37.804Z,5.00
2017-11-29T00:22:37.752Z,5.00
2017-11-29T00:23:37.754Z,5.00
2017-11-29T00:24:37.757Z,5.00
2017-11-29T00:25:37.862Z,5.00
2017-11-29T00:26:37.779Z,5.00
2017-11-29T00:27:37.853Z,5.00
2017-11-29T00:28:37.891Z,6.80
2017-11-29T00:29:37.891Z,6.80
2017-11-29T00:30:37.863Z,6.80
2017-11-29T00:31:37.803Z,6.80
2017-11-29T00:32:37.799Z,6.80
2017-11-29T00:33:37.865Z,6.80
2017-11-29T00:34:37.875Z,6.80
2017-11-29T00:35:37.894Z,6.80
2017-11-29T00:36:37.869Z,6.80
2017-11-29T00:37:37.845Z,6.80
2017-11-29T00:38:37.902Z,4.30
2017-11-29T00:39:37.817Z,4.30
2017-11-29T00:40:37.911Z,4.30
2017-11-29T00:41:37.905Z,4.30
2017-11-29T00:42:37.818Z,4.30
2017-11-29T00:43:37.847Z,4.30
2017-11-29T00:44:37.939Z,4.30
2017-11-29T00:45:37.909Z,4.30
2017-11-29T00:46:37.907Z,4.30
2017-11-29T00:47:37.886Z,4.30
2017-11-29T00:48:37.812Z,6.50
2017-11-29T00:49:37.857Z,6.50
2017-11-29T00:50:37.907Z,6.50
2017-11-29T00:51:37.789Z,6.50
2017-11-29T00:52:37.856Z,6.50
2017-11-29T00:53:37.908Z,6.50
2017-11-29T00:54:37.875Z,6.50
2017-11-29T00:55:37.817Z,6.50
2017-11-29T00:56:37.814Z,6.50
2017-11-29T00:57:37.890Z,6.50
2017-11-29T00:58:37.879Z,5.90
2017-11-29T00:59:37.810Z,5.90
2017-11-29T01:00:37.792Z,5.90
2017-11-29T01:01:37.830Z,5.90
2017-11-29T01:02:37.915Z,5.90
2017-11-29T01:03:37.811Z,5.90
2017-11-29T01:04:37.890Z,5.90
2017-11-29T01:05:37.921Z,5.90
2017-11-29T01:06:37.883Z,5.90
2017-11-29T01:07:37.837Z,5.90
2017-11-29T01:08:37.837Z,4.50
2017-11-29T01:09:37.892Z,4.50
2017-11-29T01:10:37.818Z,4.50
2017-11-29T01:11:37.886Z,4.50
2017-11-29T01:12:37.866Z,4.50
2017-11-29T01:13:37.889Z,4.50
2017-11-29T01:14:37.906Z,4.50
2017-11-29T01:15:37.993Z,4.50
2017-11-29T01:16:37.812Z,4.50
2017-11-29T01:17:37.928Z,4.50
2017-11-29T01:18:37.922Z,6.50
2017-11-29T01:19:37.896Z,6.50
2017-11-29T01:20:37.828Z,6.50
2017-11-29T01:21:37.868Z,6.50
2017-11-29T01:22:37.911Z,6.50
2017-11-29T01:23:37.868Z,6.50
2017-11-29T01:24:37.835Z,6.50
2017-11-29T01:25:37.834Z,6.50
2017-11-29T01:26:37.880Z,6.50
2017-11-29T01:27:37.814Z,6.50
2017-11-29T01:28:37.934Z,5.40
2017-11-29T01:29:37.935Z,5.40
2017-11-29T01:30:37.934Z,5.40
2017-11-29T01:31:37.813Z,5.40
2017-11-29T01:32:37.933Z,5.40
2017-11-29T01:33:37.936Z,5.40
2017-11-29T01:34:37.907Z,5.40
2017-11-29T01:35:37.903Z,5.40
2017-11-29T01:36:37.835Z,5.40
2017-11-29T01:37:37.918Z,5.40
2017-11-29T01:38:37.952Z,6.70
2017-11-29T01:39:37.847Z,6.70
2017-11-29T01:40:37.887Z,6.70
2017-11-29T01:41:37.886Z,6.70
2017-11-29T01:42:37.923Z,6.70
2017-11-29T01:43:37.849Z,6.70
2017-11-29T01:44:37.957Z,6.70
2017-11-29T01:45:37.892Z,6.70
2017-11-29T01:46:37.957Z,6.70
2017-11-29T01:47:37.961Z,6.70
2017-11-29T01:48:37.891Z,9.40
2017-11-29T01:49:37.958Z,9.40
2017-11-29T01:50:37.900Z,9.40
2017-11-29T01:51:37.961Z,9.40
2017-11-29T01:52:37.896Z,9.40
2017-11-29T01:53:37.965Z,9.40
2017-11-29T01:54:37.897Z,9.40
2017-11-29T01:55:37.960Z,9.40
2017-11-29T01:56:37.894Z,9.40
2017-11-29T01:57:37.969Z,9.40
2017-11-29T01:58:37.822Z,8.60
2017-11-29T01:59:37.853Z,8.60
2017-11-29T02:00:37.897Z,8.60
2017-11-29T02:01:37.920Z,8.60
2017-11-29T02:02:37.905Z,8.60
2017-11-29T02:03:37.926Z,8.60
2017-11-29T02:04:37.898Z,8.60
2017-11-29T02:05:37.842Z,8.60
2017-11-29T02:06:37.895Z,8.60
2017-11-29T02:07:37.853Z,8.60
2017-11-29T02:08:37.870Z,7.90
2017-11-29T02:09:37.819Z,7.90
2017-11-29T02:10:37.924Z,7.90
2017-11-29T02:11:37.922Z,7.90
2017-11-29T02:12:37.872Z,7.90
2017-11-29T02:13:37.916Z,7.90
2017-11-29T02:14:37.824Z,7.90
2017-11-29T02:15:37.872Z,7.90
2017-11-29T02:16:37.878Z,7.90
2017-11-29T02:17:37.885Z,7.90
2017-11-29T02:18:37.976Z,7.70
2017-11-29T02:19:37.976Z,7.70
2017-11-29T02:20:37.911Z,7.70
2017-11-29T02:21:37.976Z,7.70
2017-11-29T02:22:37.912Z,7.70
2017-11-29T02:23:37.984Z,7.70
2017-11-29T02:24:37.912Z,7.70
2017-11-29T02:25:37.910Z,7.70
2017-11-29T02:26:37.917Z,7.70
2017-11-29T02:27:38.005Z,7.70
2017-11-29T02:28:37.803Z,8.00
2017-11-29T02:29:37.894Z,8.00
2017-11-29T02:30:37.892Z,8.00
2017-11-29T02:31:38.107Z,8.00
2017-11-29T02:32:37.960Z,8.00
2017-11-29T02:33:37.944Z,8.00
2017-11-29T02:34:37.816Z,8.00
2017-11-29T02:35:37.855Z,8.00
2017-11-29T02:36:37.809Z,8.00
2017-11-29T02:37:37.867Z,8.00
2017-11-29T02:38:37.929Z,8.50
2017-11-29T02:39:37.924Z,8.50
2017-11-29T02:40:37.989Z,8.50
2017-11-29T02:41:37.924Z,8.50
2017-11-29T02:42:38.001Z,8.50
2017-11-29T02:43:37.997Z,8.50
2017-11-29T02:44:37.924Z,8.50
2017-11-29T02:45:37.993Z,8.50
2017-11-29T02:46:37.994Z,8.50
2017-11-29T02:47:37.928Z,8.50
2017-11-29T02:48:37.877Z,9.40
2017-11-29T02:49:37.930Z,9.40
2017-11-29T02:50:37.998Z,9.40
2017-11-29T02:51:37.929Z,9.40
2017-11-29T02:52:37.997Z,9.40
2017-11-29T02:53:37.938Z,9.40
2017-11-29T02:54:38.017Z,9.40
2017-11-29T02:55:37.931Z,9.40
2017-11-29T02:56:37.999Z,9.40
2017-11-29T02:57:37.931Z,9.40
2017-11-29T02:58:37.935Z,10.20
2017-11-29T02:59:38.002Z,10.20
2017-11-29T03:00:37.934Z,10.20
2017-11-29T03:01:38.001Z,10.20
2017-11-29T03:02:37.933Z,10.20
2017-11-29T03:03:38.007Z,10.20
2017-11-29T03:04:37.943Z,10.20
2017-11-29T03:05:37.937Z,10.20
2017-11-29T03:06:37.940Z,10.20
2017-11-29T03:07:37.940Z,10.20
2017-11-29T03:08:37.914Z,14.30
2017-11-29T03:09:37.908Z,14.30
2017-11-29T03:10:37.915Z,14.30
2017-11-29T03:11:37.995Z,14.30
2017-11-29T03:12:37.909Z,14.30
2017-11-29T03:13:38.008Z,14.30
2017-11-29T03:14:37.912Z,14.30
2017-11-29T03:15:37.999Z,14.30
2017-11-29T03:16:38.003Z,14.30
2017-11-29T03:17:37.966Z,14.30
2017-11-29T03:18:37.994Z,11.60
2017-11-29T03:19:37.907Z,11.60
2017-11-29T03:20:37.972Z,11.60
2017-11-29T03:21:37.948Z,11.60
2017-11-29T03:22:37.912Z,11.60
2017-11-29T03:23:37.979Z,11.60
2017-11-29T03:24:37.913Z,11.60
2017-11-29T03:25:38.001Z,11.60
2017-11-29T03:26:37.973Z,11.60
2017-11-29T03:27:37.881Z,11.60
2017-11-29T03:28:37.951Z,14.30
2017-11-29T03:29:38.021Z,14.30
2017-11-29T03:30:37.956Z,14.30
2017-11-29T03:31:37.953Z,14.30
2017-11-29T03:32:37.955Z,14.30
2017-11-29T03:33:38.023Z,14.30
2017-11-29T03:34:37.956Z,14.30
2017-11-29T03:35:38.024Z,14.30
2017-11-29T03:36:37.957Z,14.30
2017-11-29T03:37:37.958Z,14.30
2017-11-29T03:38:37.846Z,14.00
2017-11-29T03:39:37.899Z,14.00
2017-11-29T03:40:37.846Z,14.00
2017-11-29T03:41:37.933Z,14.00
2017-11-29T03:42:37.851Z,14.00
2017-11-29T03:43:37.846Z,14.00
2017-11-29T03:44:37.856Z,14.00
2017-11-29T03:45:37.850Z,14.00
2017-11-29T03:46:37.901Z,14.00
2017-11-29T03:47:37.973Z,14.00
2017-11-29T03:48:37.985Z,14.20
2017-11-29T03:49:37.983Z,14.20
2017-11-29T03:50:38.028Z,14.20
2017-11-29T03:51:37.994Z,14.20
2017-11-29T03:52:37.988Z,14.20
2017-11-29T03:53:37.977Z,14.20
2017-11-29T03:54:37.940Z,14.20
2017-11-29T03:55:37.990Z,14.20
2017-11-29T03:56:37.943Z,14.20
2017-11-29T03:57:38.021Z,14.20
2017-11-29T03:58:37.970Z,13.70
2017-11-29T03:59:37.973Z,13.70
2017-11-29T04:00:37.971Z,13.70
2017-11-29T04:01:38.037Z,13.70
2017-11-29T04:02:37.974Z,13.70
2017-11-29T04:03:37.923Z,13.70
2017-11-29T04:04:37.977Z,13.70
2017-11-29T04:05:38.043Z,13.70
2017-11-29T04:06:37.977Z,13.70
2017-11-29T04:07:38.039Z,13.70
2017-11-29T04:08:37.982Z,16.99
2017-11-29T04:09:38.051Z,16.99
2017-11-29T04:10:37.975Z,16.99
2017-11-29T04:11:38.045Z,16.99
2017-11-29T04:12:38.008Z,16.99
2017-11-29T04:13:37.980Z,16.99
2017-11-29T04:14:38.050Z,16.99
2017-11-29T04:15:37.982Z,16.99
2017-11-29T04:16:38.050Z,16.99
2017-11-29T04:17:37.993Z,16.99
2017-11-29T04:18:38.056Z,17.60
2017-11-29T04:19:37.985Z,17.60
2017-11-29T04:20:38.093Z,17.60
2017-11-29T04:21:38.053Z,17.60
2017-11-29T04:22:37.986Z,17.60
2017-11-29T04:23:38.056Z,17.60
2017-11-29T04:24:37.984Z,17.60
2017-11-29T04:25:38.006Z,17.60
2017-11-29T04:26:37.987Z,17.60
2017-11-29T04:27:38.056Z,17.60
2017-11-29T04:28:37.988Z,18.20
2017-11-29T04:29:38.082Z,18.20
2017-11-29T04:30:38.055Z,18.20
2017-11-29T04:31:37.991Z,18.20
2017-11-29T04:32:38.063Z,18.20
2017-11-29T04:33:38.023Z,18.20
2017-11-29T04:34:37.993Z,18.20
2017-11-29T04:35:38.066Z,18.20
2017-11-29T04:36:38.067Z,18.20
2017-11-29T04:37:37.995Z,18.20
2017-11-29T04:38:38.062Z,19.20
2017-11-29T04:39:37.996Z,19.20
2017-11-29T04:40:38.063Z,19.20
2017-11-29T04:41:37.995Z,19.20
2017-11-29T04:42:37.998Z,19.20
2017-11-29T04:43:38.064Z,19.20
2017-11-29T04:44:37.997Z,19.20
2017-11-29T04:45:38.068Z,19.20
2017-11-29T04:46:38.000Z,19.20
2017-11-29T04:47:38.064Z,19.20
2017-11-29T04:48:38.010Z,16.50
2017-11-29T04:49:38.072Z,16.50
2017-11-29T04:50:38.078Z,16.50
2017-11-29T04:51:38.003Z,16.50
2017-11-29T04:52:38.009Z,16.50
2017-11-29T04:53:38.070Z,16.50
2017-11-29T04:54:38.071Z,16.50
2017-11-29T04:55:38.005Z,16.50
2017-11-29T04:56:38.005Z,16.50
2017-11-29T04:57:38.076Z,16.50
2017-11-29T04:58:37.940Z,20.00
2017-11-29T04:59:37.947Z,20.00
2017-11-29T05:00:38.015Z,20.00
2017-11-29T05:01:37.938Z,20.00
2017-11-29T05:02:37.980Z,20.00
2017-11-29T05:03:38.006Z,20.00
2017-11-29T05:04:38.014Z,20.00
2017-11-29T05:05:37.955Z,20.00
2017-11-29T05:06:37.954Z,20.00
2017-11-29T05:07:37.990Z,20.00
2017-11-29T05:08:37.981Z,14.70
2017-11-29T05:09:38.035Z,14.70
2017-11-29T05:10:38.002Z,14.70
2017-11-29T05:11:37.948Z,14.70
2017-11-29T05:12:37.984Z,14.70
2017-11-29T05:13:38.079Z,14.70
2017-11-29T05:14:38.076Z,14.70
2017-11-29T05:15:38.067Z,14.70
2017-11-29T05:16:37.969Z,14.70
2017-11-29T05:17:37.993Z,14.70
2017-11-29T05:19:38.021Z,17.00
2017-11-29T05:20:37.908Z,17.00
2017-11-29T05:21:37.901Z,17.00
2017-11-29T05:22:38.020Z,17.00
2017-11-29T05:23:38.026Z,17.00
2017-11-29T05:24:37.969Z,17.00
2017-11-29T05:25:37.908Z,17.00
2017-11-29T05:26:37.909Z,17.00
2017-11-29T05:27:38.020Z,17.00
2017-11-29T05:28:37.914Z,17.00
2017-11-29T05:29:38.077Z,19.00
2017-11-29T05:30:38.029Z,19.00
2017-11-29T05:31:38.055Z,19.00
2017-11-29T05:32:38.048Z,19.00
2017-11-29T05:33:38.086Z,19.00
2017-11-29T05:34:37.988Z,19.00
2017-11-29T05:35:37.963Z,19.00
2017-11-29T05:36:37.998Z,19.00
2017-11-29T05:37:38.050Z,19.00
2017-11-29T05:38:37.988Z,19.00
2017-11-29T05:39:38.084Z,19.60
2017-11-29T05:40:38.090Z,19.60
2017-11-29T05:41:38.040Z,19.60
2017-11-29T05:42:38.079Z,19.60
2017-11-29T05:43:38.034Z,19.60
2017-11-29T05:44:37.958Z,19.60
2017-11-29T05:45:37.966Z,19.60
2017-11-29T05:46:37.993Z,19.60
2017-11-29T05:47:37.993Z,19.60
2017-11-29T05:48:37.966Z,19.60
2017-11-29T05:49:37.990Z,16.60
2017-11-29T05:50:38.039Z,16.60
2017-11-29T05:51:38.103Z,16.60
2017-11-29T05:52:38.039Z,16.60
2017-11-29T05:53:38.107Z,16.60
2017-11-29T05:54:38.109Z,16.60
2017-11-29T05:55:38.039Z,16.60
2017-11-29T05:56:38.042Z,16.60
2017-11-29T05:57:38.107Z,16.60
2017-11-29T05:58:38.041Z,16.60
2017-11-29T05:59:38.096Z,18.10
2017-11-29T06:00:38.016Z,18.10
2017-11-29T06:01:38.042Z,18.10
2017-11-29T06:02:38.048Z,18.10
2017-11-29T06:03:38.105Z,18.10
2017-11-29T06:04:38.016Z,18.10
2017-11-29T06:05:38.102Z,18.10
2017-11-29T06:06:38.071Z,18.10
2017-11-29T06:07:38.019Z,18.10
2017-11-29T06:08:38.107Z,18.10
2017-11-29T06:09:38.050Z,17.50
2017-11-29T06:10:38.116Z,17.50
2017-11-29T06:11:38.050Z,17.50
2017-11-29T06:12:38.117Z,17.50
2017-11-29T06:13:38.049Z,17.50
2017-11-29T06:14:38.133Z,17.50
2017-11-29T06:15:38.148Z,17.50
2017-11-29T06:16:38.077Z,17.50
2017-11-29T06:17:38.068Z,17.50
2017-11-29T06:18:38.131Z,17.50
2017-11-29T06:19:38.121Z,18.80
2017-11-29T06:20:38.069Z,18.80
2017-11-29T06:21:38.054Z,18.80
2017-11-29T06:22:38.061Z,18.80
2017-11-29T06:23:38.124Z,18.80
2017-11-29T06:24:38.076Z,18.80
2017-11-29T06:25:38.128Z,18.80
2017-11-29T06:26:38.062Z,18.80
2017-11-29T06:27:38.129Z,18.80
2017-11-29T06:28:38.058Z,18.80
2017-11-29T06:29:38.062Z,17.90
2017-11-29T06:30:38.125Z,17.90
2017-11-29T06:31:38.083Z,17.90
2017-11-29T06:32:38.135Z,17.90
2017-11-29T06:33:38.061Z,17.90
2017-11-29T06:34:38.133Z,17.90
2017-11-29T06:35:38.069Z,17.90
2017-11-29T06:36:38.131Z,17.90
2017-11-29T06:37:38.139Z,17.90
2017-11-29T06:38:38.070Z,17.90
2017-11-29T06:39:38.132Z,18.20
2017-11-29T06:40:38.134Z,18.20
2017-11-29T06:41:38.072Z,18.20
2017-11-29T06:42:38.068Z,18.20
2017-11-29T06:43:38.137Z,18.20
2017-11-29T06:44:38.070Z,18.20
2017-11-29T06:45:38.137Z,18.20
2017-11-29T06:46:38.067Z,18.20
2017-11-29T06:47:38.067Z,18.20
2017-11-29T06:48:38.150Z,18.20
2017-11-29T06:49:38.069Z,18.60
2017-11-29T06:50:38.071Z,18.60
2017-11-29T06:51:38.140Z,18.60
2017-11-29T06:52:38.096Z,18.60
2017-11-29T06:53:38.140Z,18.60
2017-11-29T06:54:38.077Z,18.60
2017-11-29T06:55:38.146Z,18.60
2017-11-29T06:56:38.088Z,18.60
2017-11-29T06:57:38.145Z,18.60
2017-11-29T06:58:38.077Z,18.60
2017-11-29T06:59:38.011Z,19.50
2017-11-29T07:00:38.105Z,19.50
2017-11-29T07:01:38.023Z,19.50
2017-11-29T07:02:38.078Z,19.50
2017-11-29T07:03:38.076Z,19.50
2017-11-29T07:04:38.043Z,19.50
2017-11-29T07:05:38.011Z,19.50
2017-11-29T07:06:38.141Z,19.50
2017-11-29T07:07:38.010Z,19.50
2017-11-29T07:08:38.142Z,19.50
2017-11-29T07:09:38.086Z,13.80
2017-11-29T07:10:37.971Z,13.80
2017-11-29T07:11:38.056Z,13.80
2017-11-29T07:12:38.023Z,13.80
2017-11-29T07:13:38.023Z,13.80
2017-11-29T07:14:38.080Z,13.80
2017-11-29T07:15:37.978Z,13.80
2017-11-29T07:16:38.015Z,13.80
2017-11-29T07:17:38.087Z,13.80
2017-11-29T07:18:37.981Z,13.80
2017-11-29T07:19:38.145Z,26.50
2017-11-29T07:20:38.153Z,26.50
2017-11-29T07:21:38.152Z,26.50
2017-11-29T07:22:38.149Z,26.50
2017-11-29T07:23:38.149Z,26.50
2017-11-29T07:24:38.085Z,26.50
2017-11-29T07:25:38.102Z,26.50
2017-11-29T07:26:38.106Z,26.50
2017-11-29T07:27:38.150Z,26.50
2017-11-29T07:28:38.125Z,26.50
2017-11-29T07:29:38.110Z,20.80
2017-11-29T07:30:38.151Z,20.80
2017-11-29T07:31:38.034Z,20.80
2017-11-29T07:32:38.120Z,20.80
2017-11-29T07:33:38.122Z,20.80
2017-11-29T07:34:38.038Z,20.80
2017-11-29T07:35:38.154Z,20.80
2017-11-29T07:36:38.039Z,20.80
2017-11-29T07:37:38.169Z,20.80
2017-11-29T07:38:38.157Z,20.80
2017-11-29T07:39:38.168Z,18.99
2017-11-29T07:40:38.105Z,18.99
2017-11-29T07:41:38.185Z,18.99
2017-11-29T07:42:38.161Z,18.99
2017-11-29T07:43:38.107Z,18.99
2017-11-29T07:44:38.175Z,18.99
2017-11-29T07:45:38.105Z,18.99
2017-11-29T07:46:38.106Z,18.99
2017-11-29T07:47:38.109Z,18.99
2017-11-29T07:48:38.133Z,18.99
2017-11-29T07:49:38.113Z,16.10
2017-11-29T07:50:38.186Z,16.10
2017-11-29T07:51:38.181Z,16.10
2017-11-29T07:52:38.115Z,16.10
2017-11-29T07:53:38.180Z,16.10
2017-11-29T07:54:38.117Z,16.10
2017-11-29T07:55:38.116Z,16.10
2017-11-29T07:56:38.063Z,16.10
2017-11-29T07:57:38.120Z,16.10
2017-11-29T07:58:38.181Z,16.10
2017-11-29T07:59:38.118Z,16.90
2017-11-29T08:00:38.182Z,16.90
2017-11-29T08:01:38.117Z,16.90
2017-11-29T08:02:38.197Z,16.90
2017-11-29T08:03:38.121Z,16.90
2017-11-29T08:04:38.189Z,16.90
2017-11-29T08:05:38.136Z,16.90
2017-11-29T08:06:38.184Z,16.90
2017-11-29T08:07:38.121Z,16.90
2017-11-29T08:08:38.121Z,16.90
2017-11-29T08:09:38.131Z,36.00
2017-11-29T08:10:38.081Z,36.00
2017-11-29T08:11:38.085Z,36.00
2017-11-29T08:12:38.134Z,36.00
2017-11-29T08:13:38.044Z,36.00
2017-11-29T08:14:38.140Z,36.00
2017-11-29T08:15:38.137Z,36.00
2017-11-29T08:16:38.085Z,36.00
2017-11-29T08:17:38.044Z,36.00
2017-11-29T08:18:38.141Z,36.00
2017-11-29T08:19:38.072Z,34.20
2017-11-29T08:20:38.145Z,34.20
2017-11-29T08:21:38.176Z,34.20
2017-11-29T08:22:38.185Z,34.20
2017-11-29T08:23:38.197Z,34.20
2017-11-29T08:24:38.164Z,34.20
2017-11-29T08:25:38.178Z,34.20
2017-11-29T08:26:38.189Z,34.20
2017-11-29T08:27:38.083Z,34.20
2017-11-29T08:28:38.064Z,34.20
2017-11-29T08:29:38.134Z,24.80
2017-11-29T08:30:38.229Z,24.80
2017-11-29T08:31:38.136Z,24.80
2017-11-29T08:32:38.139Z,24.80
2017-11-29T08:33:38.134Z,24.80
2017-11-29T08:34:38.149Z,24.80
2017-11-29T08:35:38.139Z,24.80
2017-11-29T08:36:38.204Z,24.80
2017-11-29T08:37:38.136Z,24.80
2017-11-29T08:38:38.224Z,24.80
2017-11-29T08:39:38.137Z,64.90
2017-11-29T08:40:38.207Z,64.90
2017-11-29T08:41:38.198Z,64.90
2017-11-29T08:42:38.143Z,64.90
2017-11-29T08:43:38.209Z,64.90
2017-11-29T08:44:38.140Z,64.90
2017-11-29T08:45:38.245Z,64.90
2017-11-29T08:46:38.210Z,64.90
2017-11-29T08:47:38.210Z,64.90
2017-11-29T08:48:38.150Z,64.90
2017-11-29T08:49:38.142Z,34.90
2017-11-29T08:50:38.181Z,34.90
2017-11-29T08:51:38.201Z,34.90
2017-11-29T08:52:38.169Z,34.90
2017-11-29T08:53:38.076Z,34.90
2017-11-29T08:54:38.125Z,34.90
2017-11-29T08:55:38.114Z,34.90
2017-11-29T08:56:38.212Z,34.90
2017-11-29T08:57:38.117Z,34.90
2017-11-29T08:58:38.083Z,34.90
2017-11-29T08:59:38.155Z,18.30
2017-11-29T09:00:38.156Z,18.30
2017-11-29T09:01:38.220Z,18.30
2017-11-29T09:02:38.153Z,18.30
2017-11-29T09:03:38.218Z,18.30
2017-11-29T09:04:38.154Z,18.30
2017-11-29T09:05:38.251Z,18.30
2017-11-29T09:06:38.177Z,18.30
2017-11-29T09:07:38.225Z,18.30
2017-11-29T09:08:38.153Z,18.30
2017-11-29T09:09:38.257Z,36.90
2017-11-29T09:10:38.223Z,36.90
2017-11-29T09:11:38.176Z,36.90
2017-11-29T09:12:38.228Z,36.90
2017-11-29T09:13:38.158Z,36.90
2017-11-29T09:14:38.224Z,36.90
2017-11-29T09:15:38.196Z,36.90
2017-11-29T09:16:38.235Z,36.90
2017-11-29T09:17:38.161Z,36.90
2017-11-29T09:18:38.229Z,36.90
2017-11-29T09:19:38.227Z,48.50
2017-11-29T09:20:38.163Z,48.50
2017-11-29T09:21:38.122Z,48.50
2017-11-29T09:22:38.207Z,48.50
2017-11-29T09:23:38.230Z,48.50
2017-11-29T09:24:38.167Z,48.50
2017-11-29T09:25:38.160Z,48.50
2017-11-29T09:26:38.232Z,48.50
2017-11-29T09:27:38.164Z,48.50
2017-11-29T09:28:38.331Z,48.50
2017-11-29T09:29:38.181Z,50.90
2017-11-29T09:30:38.170Z,50.90
2017-11-29T09:31:38.237Z,50.90
2017-11-29T09:32:38.169Z,50.90
2017-11-29T09:33:38.236Z,50.90
2017-11-29T09:34:38.165Z,50.90
2017-11-29T09:35:38.243Z,50.90
2017-11-29T09:36:38.280Z,50.90
2017-11-29T09:37:38.170Z,50.90
2017-11-29T09:38:38.244Z,50.90
2017-11-29T09:39:38.119Z,28.20
2017-11-29T09:40:38.191Z,28.20
2017-11-29T09:41:38.235Z,28.20
2017-11-29T09:42:38.200Z,28.20
2017-11-29T09:43:38.236Z,28.20
2017-11-29T09:44:38.237Z,28.20
2017-11-29T09:45:38.212Z,28.20
2017-11-29T09:46:38.238Z,28.20
2017-11-29T09:47:38.152Z,28.20
2017-11-29T09:48:38.191Z,28.20
2017-11-29T09:49:38.236Z,16.60
2017-11-29T09:50:38.152Z,16.60
2017-11-29T09:51:38.118Z,16.60
2017-11-29T09:52:38.252Z,16.60
2017-11-29T09:53:38.130Z,16.60
2017-11-29T09:54:38.149Z,16.60
2017-11-29T09:55:38.234Z,16.60
2017-11-29T09:56:38.220Z,16.60
2017-11-29T09:57:38.136Z,16.60
2017-11-29T09:58:38.189Z,16.60
2017-11-29T09:59:38.159Z,16.00
2017-11-29T10:00:38.152Z,16.00
2017-11-29T10:01:38.161Z,16.00
2017-11-29T10:02:38.241Z,16.00
2017-11-29T10:03:38.225Z,16.00
2017-11-29T10:04:38.255Z,16.00
2017-11-29T10:05:38.188Z,16.00
2017-11-29T10:06:38.206Z,16.00
2017-11-29T10:07:38.256Z,16.00
2017-11-29T10:08:38.161Z,16.00
2017-11-29T10:09:38.144Z,15.90
2017-11-29T10:10:38.162Z,15.90
2017-11-29T10:11:38.257Z,15.90
2017-11-29T10:12:38.229Z,15.90
2017-11-29T10:13:38.213Z,15.90
2017-11-29T10:14:38.145Z,15.90
2017-11-29T10:15:38.212Z,15.90
2017-11-29T10:16:38.260Z,15.90
2017-11-29T10:17:38.216Z,15.90
2017-11-29T10:18:38.255Z,15.90
2017-11-29T10:19:38.149Z,14.90
2017-11-29T10:20:38.220Z,14.90
2017-11-29T10:21:38.145Z,14.90
2017-11-29T10:22:38.219Z,14.90
2017-11-29T10:23:38.218Z,14.90
2017-11-29T10:24:38.257Z,14.90
2017-11-29T10:25:38.135Z,14.90
2017-11-29T10:26:38.218Z,14.90
2017-11-29T10:27:38.260Z,14.90
2017-11-29T10:28:38.274Z,14.90
2017-11-29T10:29:38.197Z,14.80
2017-11-29T10:30:38.271Z,14.80
2017-11-29T10:31:38.274Z,14.80
2017-11-29T10:32:38.205Z,14.80
2017-11-29T10:33:38.275Z,14.80
2017-11-29T10:34:38.213Z,14.80
2017-11-29T10:35:38.273Z,14.80
2017-11-29T10:36:38.206Z,14.80
2017-11-29T10:37:38.274Z,14.80
2017-11-29T10:38:38.207Z,14.80
2017-11-29T10:39:38.278Z,13.50
2017-11-29T10:40:38.213Z,13.50
2017-11-29T10:41:38.278Z,13.50
2017-11-29T10:42:38.209Z,13.50
2017-11-29T10:43:38.212Z,13.50
2017-11-29T10:44:38.282Z,13.50
2017-11-29T10:45:38.214Z,13.50
2017-11-29T10:46:38.283Z,13.50
2017-11-29T10:47:38.212Z,13.50
2017-11-29T10:48:38.283Z,13.50
2017-11-29T10:49:38.211Z,13.50
2017-11-29T10:50:38.271Z,12.70
2017-11-29T10:51:38.165Z,12.70
2017-11-29T10:52:38.246Z,12.70
2017-11-29T10:53:38.251Z,12.70
2017-11-29T10:54:38.191Z,12.70
2017-11-29T10:55:38.284Z,12.70
2017-11-29T10:56:38.277Z,12.70
2017-11-29T10:57:38.256Z,12.70
2017-11-29T10:58:38.221Z,12.70
2017-11-29T10:59:38.234Z,12.70
2017-11-29T11:00:38.222Z,13.60
2017-11-29T11:01:38.239Z,13.60
2017-11-29T11:02:38.223Z,13.60
2017-11-29T11:03:38.293Z,13.60
2017-11-29T11:04:38.292Z,13.60
2017-11-29T11:05:38.298Z,13.60
2017-11-29T11:06:38.223Z,13.60
2017-11-29T11:07:38.225Z,13.60
2017-11-29T11:08:38.300Z,13.60
2017-11-29T11:09:38.228Z,13.60
2017-11-29T11:10:38.142Z,13.00
2017-11-29T11:11:38.241Z,13.00
2017-11-29T11:12:38.193Z,13.00
2017-11-29T11:13:38.244Z,13.00
2017-11-29T11:14:38.244Z,13.00
2017-11-29T11:15:38.241Z,13.00
2017-11-29T11:16:38.197Z,13.00
2017-11-29T11:17:38.249Z,13.00
2017-11-29T11:18:38.149Z,13.00
2017-11-29T11:19:38.294Z,13.00
2017-11-29T11:20:38.234Z,14.20
2017-11-29T11:21:38.303Z,14.20
2017-11-29T11:22:38.237Z,14.20
2017-11-29T11:23:38.304Z,14.20
2017-11-29T11:24:38.303Z,14.20
2017-11-29T11:25:38.238Z,14.20
2017-11-29T11:26:38.303Z,14.20
2017-11-29T11:27:38.244Z,14.20
2017-11-29T11:28:38.306Z,14.20
2017-11-29T11:29:38.237Z,14.20
2017-11-29T11:30:38.165Z,13.00
2017-11-29T11:31:38.221Z,13.00
2017-11-29T11:32:38.233Z,13.00
2017-11-29T11:33:38.289Z,13.00
2017-11-29T11:34:38.201Z,13.00
2017-11-29T11:35:38.201Z,13.00
2017-11-29T11:36:38.270Z,13.00
2017-11-29T11:37:38.236Z,13.00
2017-11-29T11:38:38.224Z,13.00
2017-11-29T11:39:38.177Z,13.00
2017-11-29T11:40:38.204Z,25.00
2017-11-29T11:41:38.294Z,25.00
2017-11-29T11:42:38.298Z,25.00
2017-11-29T11:43:38.244Z,25.00
2017-11-29T11:44:38.226Z,25.00
2017-11-29T11:45:38.278Z,25.00
2017-11-29T11:46:38.280Z,25.00
2017-11-29T11:47:38.179Z,25.00
2017-11-29T11:48:38.257Z,25.00
2017-11-29T11:49:38.270Z,25.00
2017-11-29T11:50:38.297Z,12.50
2017-11-29T11:51:38.232Z,12.50
2017-11-29T11:52:38.301Z,12.50
2017-11-29T11:53:38.288Z,12.50
2017-11-29T11:54:38.270Z,12.50
2017-11-29T11:55:38.212Z,12.50
2017-11-29T11:56:38.188Z,12.50
2017-11-29T11:57:38.251Z,12.50
2017-11-29T11:58:38.255Z,12.50
2017-11-29T11:59:38.306Z,12.50
2017-11-29T12:00:38.342Z,11.20
2017-11-29T12:01:38.257Z,11.20
2017-11-29T12:02:38.330Z,11.20
2017-11-29T12:03:38.261Z,11.20
2017-11-29T12:04:38.330Z,11.20
2017-11-29T12:05:38.257Z,11.20
2017-11-29T12:06:38.265Z,11.20
2017-11-29T12:07:38.342Z,11.20
2017-11-29T12:08:38.260Z,11.20
2017-11-29T12:09:38.338Z,11.20
2017-11-29T12:10:38.334Z,12.10
2017-11-29T12:11:38.261Z,12.10
2017-11-29T12:12:38.346Z,12.10
2017-11-29T12:13:38.258Z,12.10
2017-11-29T12:14:38.334Z,12.10
2017-11-29T12:15:38.266Z,12.10
2017-11-29T12:16:38.338Z,12.10
2017-11-29T12:17:38.269Z,12.10
2017-11-29T12:18:38.336Z,12.10
2017-11-29T12:19:38.266Z,12.10
2017-11-29T12:20:38.211Z,11.00
2017-11-29T12:21:38.288Z,11.00
2017-11-29T12:22:38.253Z,11.00
2017-11-29T12:23:38.231Z,11.00
2017-11-29T12:24:38.298Z,11.00
2017-11-29T12:25:38.246Z,11.00
2017-11-29T12:26:38.319Z,11.00
2017-11-29T12:27:38.198Z,11.00
2017-11-29T12:28:38.201Z,11.00
2017-11-29T12:29:38.305Z,11.00
2017-11-29T12:30:38.342Z,12.40
2017-11-29T12:31:38.272Z,12.40
2017-11-29T12:32:38.344Z,12.40
2017-11-29T12:33:38.283Z,12.40
2017-11-29T12:34:38.346Z,12.40
2017-11-29T12:35:38.347Z,12.40
2017-11-29T12:36:38.348Z,12.40
2017-11-29T12:37:38.281Z,12.40
2017-11-29T12:38:38.350Z,12.40
2017-11-29T12:39:38.285Z,12.40
2017-11-29T12:40:38.283Z,11.70
2017-11-29T12:41:38.298Z,11.70
2017-11-29T12:42:38.353Z,11.70
2017-11-29T12:43:38.229Z,11.70
2017-11-29T12:44:38.229Z,11.70
2017-11-29T12:45:38.282Z,11.70
2017-11-29T12:46:38.257Z,11.70
2017-11-29T12:47:38.323Z,11.70
2017-11-29T12:48:38.303Z,11.70
2017-11-29T12:49:38.237Z,11.70
2017-11-29T12:50:38.284Z,11.50
2017-11-29T12:51:38.362Z,11.50
2017-11-29T12:52:38.287Z,11.50
2017-11-29T12:53:38.357Z,11.50
2017-11-29T12:54:38.291Z,11.50
2017-11-29T12:55:38.283Z,11.50
2017-11-29T12:56:38.374Z,11.50
2017-11-29T12:57:38.291Z,11.50
2017-11-29T12:58:38.362Z,11.50
2017-11-29T12:59:38.364Z,11.50